sensor_id;sensor_type;location;lat;lon;timestamp;pressure;altitude;pressure_sealevel;temperature;humidity
55759;BME280;41678;52.126;20.664;2023-10-13T00:02:01;100340.88;;;9.10;84.58
55759;BME280;41678;52.126;20.664;2023-10-13T00:07:22;100342.66;;;9.07;85.19
55759;BME280;41678;52.126;20.664;2023-10-13T00:12:42;100350.53;;;9.06;85.17
55759;BME280;41678;52.126;20.664;2023-10-13T00:18:08;100344.44;;;9.01;84.51
55759;BME280;41678;52.126;20.664;2023-10-13T00:23:31;100350.56;;;8.98;84.80
55759;BME280;41678;52.126;20.664;2023-10-13T00:28:52;100346.16;;;9.05;84.91
55759;BME280;41678;52.126;20.664;2023-10-13T00:34:18;100354.03;;;9.10;85.19
55759;BME280;41678;52.126;20.664;2023-10-13T00:39:39;100355.75;;;9.09;84.53
55759;BME280;41678;52.126;20.664;2023-10-13T00:45:04;100357.50;;;9.13;84.69
55759;BME280;41678;52.126;20.664;2023-10-13T00:50:24;100353.13;;;9.11;84.55
55759;BME280;41678;52.126;20.664;2023-10-13T00:55:43;100348.75;;;9.08;84.35
55759;BME280;41678;52.126;20.664;2023-10-13T01:01:04;100362.78;;;9.07;84.58
55759;BME280;41678;52.126;20.664;2023-10-13T01:06:40;100361.03;;;9.06;84.68
55759;BME280;41678;52.126;20.664;2023-10-13T01:12:00;100371.53;;;9.07;84.13
55759;BME280;41678;52.126;20.664;2023-10-13T01:17:20;100382.03;;;9.09;84.94
55759;BME280;41678;52.126;20.664;2023-10-13T01:22:43;100361.88;;;9.08;84.80
55759;BME280;41678;52.126;20.664;2023-10-13T01:28:02;100368.03;;;9.13;84.90
55759;BME280;41678;52.126;20.664;2023-10-13T01:33:22;100373.22;;;9.19;84.17
55759;BME280;41678;52.126;20.664;2023-10-13T01:38:49;100373.22;;;9.19;84.50
55759;BME280;41678;52.126;20.664;2023-10-13T01:44:09;100379.34;;;9.23;84.42
55759;BME280;41678;52.126;20.664;2023-10-13T01:49:34;100357.47;;;9.19;84.40
55759;BME280;41678;52.126;20.664;2023-10-13T01:55:09;100367.06;;;9.25;84.31
55759;BME280;41678;52.126;20.664;2023-10-13T02:00:30;100360.06;;;9.29;84.30
55759;BME280;41678;52.126;20.664;2023-10-13T02:05:50;100376.66;;;9.37;84.50
55759;BME280;41678;52.126;20.664;2023-10-13T02:11:12;100367.03;;;9.36;84.67
55759;BME280;41678;52.126;20.664;2023-10-13T02:16:32;100371.38;;;9.43;84.83
55759;BME280;41678;52.126;20.664;2023-10-13T02:21:52;100366.97;;;9.45;84.75
55759;BME280;41678;52.126;20.664;2023-10-13T02:27:18;100366.13;;;9.43;84.91
55759;BME280;41678;52.126;20.664;2023-10-13T02:32:42;100369.53;;;9.55;84.53
55759;BME280;41678;52.126;20.664;2023-10-13T02:38:03;100370.41;;;9.54;84.50
55759;BME280;41678;52.126;20.664;2023-10-13T02:43:30;100381.78;;;9.62;83.91
55759;BME280;41678;52.126;20.664;2023-10-13T02:48:53;100380.00;;;9.62;84.22
55759;BME280;41678;52.126;20.664;2023-10-13T02:54:13;100367.72;;;9.66;84.10
55759;BME280;41678;52.126;20.664;2023-10-13T02:59:37;100364.19;;;9.70;84.69
55759;BME280;41678;52.126;20.664;2023-10-13T03:05:00;100367.66;;;9.75;84.68
55759;BME280;41678;52.126;20.664;2023-10-13T03:10:23;100365.00;;;9.77;84.16
55759;BME280;41678;52.126;20.664;2023-10-13T03:15:48;100366.75;;;9.81;84.90
55759;BME280;41678;52.126;20.664;2023-10-13T03:21:07;100365.84;;;9.87;84.77
55759;BME280;41678;52.126;20.664;2023-10-13T03:26:27;100359.69;;;9.86;84.44
55759;BME280;41678;52.126;20.664;2023-10-13T03:31:47;100371.09;;;9.87;84.35
55759;BME280;41678;52.126;20.664;2023-10-13T03:37:22;100358.00;;;9.79;84.56
55759;BME280;41678;52.126;20.664;2023-10-13T03:42:58;100361.47;;;9.86;84.68
55759;BME280;41678;52.126;20.664;2023-10-13T03:48:24;100380.69;;;9.92;84.41
55759;BME280;41678;52.126;20.664;2023-10-13T03:53:46;100384.25;;;9.84;85.32
55759;BME280;41678;52.126;20.664;2023-10-13T03:59:12;100393.91;;;9.82;84.77
55759;BME280;41678;52.126;20.664;2023-10-13T04:04:34;100378.22;;;9.72;84.83
55759;BME280;41678;52.126;20.664;2023-10-13T04:10:01;100356.38;;;9.59;84.63
55759;BME280;41678;52.126;20.664;2023-10-13T04:15:43;100387.00;;;9.65;85.15
55759;BME280;41678;52.126;20.664;2023-10-13T04:21:24;100386.16;;;9.60;84.57
55759;BME280;41678;52.126;20.664;2023-10-13T04:26:59;100388.81;;;9.57;84.77
55759;BME280;41678;52.126;20.664;2023-10-13T04:32:39;100373.06;;;9.50;84.73
55759;BME280;41678;52.126;20.664;2023-10-13T04:38:00;100376.59;;;9.49;84.95
55759;BME280;41678;52.126;20.664;2023-10-13T04:43:20;100352.97;;;9.46;84.68
55759;BME280;41678;52.126;20.664;2023-10-13T04:48:52;100338.06;;;9.45;84.91
55759;BME280;41678;52.126;20.664;2023-10-13T04:54:19;100343.31;;;9.48;84.76
55759;BME280;41678;52.126;20.664;2023-10-13T04:59:50;100363.44;;;9.49;84.90
55759;BME280;41678;52.126;20.664;2023-10-13T05:05:28;100386.19;;;9.57;84.87
55759;BME280;41678;52.126;20.664;2023-10-13T05:11:07;100381.81;;;9.56;84.61
55759;BME280;41678;52.126;20.664;2023-10-13T05:16:45;100365.19;;;9.50;84.52
55759;BME280;41678;52.126;20.664;2023-10-13T05:22:23;100385.31;;;9.56;85.02
55759;BME280;41678;52.126;20.664;2023-10-13T05:28:02;100385.31;;;9.58;85.00
55759;BME280;41678;52.126;20.664;2023-10-13T05:33:40;100384.44;;;9.59;84.97
55759;BME280;41678;52.126;20.664;2023-10-13T05:39:18;100374.78;;;9.55;84.74
55759;BME280;41678;52.126;20.664;2023-10-13T05:45:03;100384.38;;;9.65;84.79
55759;BME280;41678;52.126;20.664;2023-10-13T05:50:28;100416.75;;;9.70;84.53
55759;BME280;41678;52.126;20.664;2023-10-13T05:56:08;100414.13;;;9.75;85.04
55759;BME280;41678;52.126;20.664;2023-10-13T06:01:46;100421.97;;;9.80;84.92
55759;BME280;41678;52.126;20.664;2023-10-13T06:07:25;100419.34;;;9.81;84.96
55759;BME280;41678;52.126;20.664;2023-10-13T06:13:03;100426.34;;;9.87;84.77
55759;BME280;41678;52.126;20.664;2023-10-13T06:18:42;100423.69;;;9.87;84.84
55759;BME280;41678;52.126;20.664;2023-10-13T06:24:20;100435.03;;;9.95;85.43
55759;BME280;41678;52.126;20.664;2023-10-13T06:29:58;100434.97;;;10.03;85.67
55759;BME280;41678;52.126;20.664;2023-10-13T06:35:19;100438.44;;;10.08;85.98
55759;BME280;41678;52.126;20.664;2023-10-13T06:40:45;100443.69;;;10.14;86.22
55759;BME280;41678;52.126;20.664;2023-10-13T06:46:11;100445.41;;;10.20;87.35
55759;BME280;41678;52.126;20.664;2023-10-13T06:51:42;100447.09;;;10.26;87.71
55759;BME280;41678;52.126;20.664;2023-10-13T06:57:02;100451.41;;;10.33;87.80
55759;BME280;41678;52.126;20.664;2023-10-13T07:02:26;100446.13;;;10.39;89.98
55759;BME280;41678;52.126;20.664;2023-10-13T07:07:53;100447.84;;;10.45;89.10
55759;BME280;41678;52.126;20.664;2023-10-13T07:13:15;100440.81;;;10.50;90.67
55759;BME280;41678;52.126;20.664;2023-10-13T07:18:36;100433.78;;;10.46;91.14
55759;BME280;41678;52.126;20.664;2023-10-13T07:23:56;100438.13;;;10.52;89.97
55759;BME280;41678;52.126;20.664;2023-10-13T07:29:28;100437.16;;;10.60;91.30
55759;BME280;41678;52.126;20.664;2023-10-13T07:34:47;100433.69;;;10.58;91.23
55759;BME280;41678;52.126;20.664;2023-10-13T07:40:08;100430.16;;;10.61;90.14
55759;BME280;41678;52.126;20.664;2023-10-13T07:45:43;100433.63;;;10.68;90.85
55759;BME280;41678;52.126;20.664;2023-10-13T07:51:05;100432.69;;;10.72;90.46
55759;BME280;41678;52.126;20.664;2023-10-13T07:56:31;100422.16;;;10.72;92.82
55759;BME280;41678;52.126;20.664;2023-10-13T08:01:52;100426.50;;;10.76;92.95
55759;BME280;41678;52.126;20.664;2023-10-13T08:07:31;100414.22;;;10.78;91.39
55759;BME280;41678;52.126;20.664;2023-10-13T08:12:51;100402.78;;;10.79;90.88
55759;BME280;41678;52.126;20.664;2023-10-13T08:18:11;100404.44;;;10.88;91.64
55759;BME280;41678;52.126;20.664;2023-10-13T08:23:37;100388.59;;;10.93;91.55
55759;BME280;41678;52.126;20.664;2023-10-13T08:29:14;100401.59;;;11.07;92.26
55759;BME280;41678;52.126;20.664;2023-10-13T08:34:40;100391.00;;;11.11;93.29
55759;BME280;41678;52.126;20.664;2023-10-13T08:40:03;100392.75;;;11.12;91.66
55759;BME280;41678;52.126;20.664;2023-10-13T08:45:23;100396.97;;;11.26;93.18
55759;BME280;41678;52.126;20.664;2023-10-13T08:50:47;100396.03;;;11.28;92.32
55759;BME280;41678;52.126;20.664;2023-10-13T08:56:11;100392.41;;;11.37;93.49
55759;BME280;41678;52.126;20.664;2023-10-13T09:01:35;100391.38;;;11.51;93.98
55759;BME280;41678;52.126;20.664;2023-10-13T09:06:59;100376.41;;;11.53;93.25
55759;BME280;41678;52.126;20.664;2023-10-13T09:12:27;100378.94;;;11.60;92.89
55759;BME280;41678;52.126;20.664;2023-10-13T09:17:52;100374.41;;;11.70;93.33
55759;BME280;41678;52.126;20.664;2023-10-13T09:23:32;100369.03;;;11.76;92.77
55759;BME280;41678;52.126;20.664;2023-10-13T09:29:14;100364.47;;;11.86;93.70
55759;BME280;41678;52.126;20.664;2023-10-13T09:34:37;100358.22;;;11.94;93.59
55759;BME280;41678;52.126;20.664;2023-10-13T09:40:04;100348.25;;;12.13;95.43
55759;BME280;41678;52.126;20.664;2023-10-13T09:45:46;100355.16;;;12.20;95.46
55759;BME280;41678;52.126;20.664;2023-10-13T09:51:21;100342.81;;;12.24;94.70
55759;BME280;41678;52.126;20.664;2023-10-13T09:57:00;100346.81;;;12.45;95.98
55759;BME280;41678;52.126;20.664;2023-10-13T10:02:29;100330.16;;;12.41;95.06
55759;BME280;41678;52.126;20.664;2023-10-13T10:07:57;100334.09;;;12.66;96.15
55759;BME280;41678;52.126;20.664;2023-10-13T10:13:28;100333.94;;;12.73;95.92
55759;BME280;41678;52.126;20.664;2023-10-13T10:19:00;100326.84;;;12.77;95.23
55759;BME280;41678;52.126;20.664;2023-10-13T10:24:21;100302.81;;;12.89;95.04
55759;BME280;41678;52.126;20.664;2023-10-13T10:29:53;100295.59;;;12.96;94.31
55759;BME280;41678;52.126;20.664;2023-10-13T10:35:13;100292.75;;;13.07;93.81
55759;BME280;41678;52.126;20.664;2023-10-13T10:40:57;100275.84;;;13.14;93.15
55759;BME280;41678;52.126;20.664;2023-10-13T10:46:19;100267.63;;;13.27;92.79
55759;BME280;41678;52.126;20.664;2023-10-13T10:51:45;100263.69;;;13.46;92.93
55759;BME280;41678;52.126;20.664;2023-10-13T10:57:04;100256.16;;;13.66;93.29
55759;BME280;41678;52.126;20.664;2023-10-13T11:02:30;100246.91;;;13.84;93.31
55759;BME280;41678;52.126;20.664;2023-10-13T11:07:50;100249.38;;;13.90;92.83
55759;BME280;41678;52.126;20.664;2023-10-13T11:13:10;100241.22;;;13.99;92.24
55759;BME280;41678;52.126;20.664;2023-10-13T11:18:41;100231.84;;;14.19;93.20
55759;BME280;41678;52.126;20.664;2023-10-13T11:24:00;100212.06;;;14.33;92.97
55759;BME280;41678;52.126;20.664;2023-10-13T11:29:32;100209.88;;;14.47;92.62
55759;BME280;41678;52.126;20.664;2023-10-13T11:34:53;100202.22;;;14.68;93.05
55759;BME280;41678;52.126;20.664;2023-10-13T11:40:14;100207.19;;;14.80;92.62
55759;BME280;41678;52.126;20.664;2023-10-13T11:45:47;100189.97;;;14.94;92.73
55759;BME280;41678;52.126;20.664;2023-10-13T11:51:33;100183.50;;;15.04;92.60
55759;BME280;41678;52.126;20.664;2023-10-13T11:56:53;100182.19;;;15.18;92.30
55759;BME280;41678;52.126;20.664;2023-10-13T12:02:17;100171.31;;;15.25;92.01
55759;BME280;41678;52.126;20.664;2023-10-13T12:07:46;100170.16;;;15.34;91.73
55759;BME280;41678;52.126;20.664;2023-10-13T12:13:07;100165.16;;;15.50;92.18
55759;BME280;41678;52.126;20.664;2023-10-13T12:18:30;100157.50;;;15.68;92.39
55759;BME280;41678;52.126;20.664;2023-10-13T12:23:49;100153.66;;;15.77;92.63
55759;BME280;41678;52.126;20.664;2023-10-13T12:29:10;100149.06;;;16.07;93.29
55759;BME280;41678;52.126;20.664;2023-10-13T12:34:41;100149.72;;;16.14;92.85
55759;BME280;41678;52.126;20.664;2023-10-13T12:40:18;100145.19;;;16.16;92.26
55759;BME280;41678;52.126;20.664;2023-10-13T12:45:57;100124.56;;;16.24;92.36
55759;BME280;41678;52.126;20.664;2023-10-13T12:51:35;100122.44;;;16.33;91.92
55759;BME280;41678;52.126;20.664;2023-10-13T12:56:55;100116.03;;;16.38;91.72
55759;BME280;41678;52.126;20.664;2023-10-13T13:02:15;100121.22;;;16.41;91.63
55759;BME280;41678;52.126;20.664;2023-10-13T13:07:35;100119.94;;;16.52;91.68
55759;BME280;41678;52.126;20.664;2023-10-13T13:13:03;100113.66;;;16.54;91.77
55759;BME280;41678;52.126;20.664;2023-10-13T13:18:24;100119.69;;;16.58;91.84
55759;BME280;41678;52.126;20.664;2023-10-13T13:23:43;100108.97;;;16.61;91.77
55759;BME280;41678;52.126;20.664;2023-10-13T13:29:04;100092.91;;;16.64;91.88
55759;BME280;41678;52.126;20.664;2023-10-13T13:34:24;100098.88;;;16.69;91.85
55759;BME280;41678;52.126;20.664;2023-10-13T13:39:45;100082.81;;;16.73;91.74
55759;BME280;41678;52.126;20.664;2023-10-13T13:45:11;100060.56;;;16.75;91.87
55759;BME280;41678;52.126;20.664;2023-10-13T13:50:30;100076.31;;;16.80;91.84
55759;BME280;41678;52.126;20.664;2023-10-13T13:55:51;100064.00;;;16.77;91.70
55759;BME280;41678;52.126;20.664;2023-10-13T14:01:11;100065.50;;;16.84;91.71
55759;BME280;41678;52.126;20.664;2023-10-13T14:06:32;100058.34;;;16.87;91.84
55759;BME280;41678;52.126;20.664;2023-10-13T14:11:52;100059.19;;;16.87;91.69
55759;BME280;41678;52.126;20.664;2023-10-13T14:17:31;100051.16;;;16.89;91.38
55759;BME280;41678;52.126;20.664;2023-10-13T14:22:54;100045.75;;;16.90;92.14
55759;BME280;41678;52.126;20.664;2023-10-13T14:28:14;100042.28;;;16.88;91.71
55759;BME280;41678;52.126;20.664;2023-10-13T14:33:37;100036.94;;;16.90;91.85
55759;BME280;41678;52.126;20.664;2023-10-13T14:38:58;100040.50;;;16.89;91.67
55759;BME280;41678;52.126;20.664;2023-10-13T14:44:17;100041.44;;;16.88;92.16
55759;BME280;41678;52.126;20.664;2023-10-13T14:49:37;100029.09;;;16.87;92.15
55759;BME280;41678;52.126;20.664;2023-10-13T14:54:56;100013.19;;;16.85;91.96
55759;BME280;41678;52.126;20.664;2023-10-13T15:00:17;100013.03;;;16.88;91.82
55759;BME280;41678;52.126;20.664;2023-10-13T15:05:44;100012.25;;;16.86;91.91
55759;BME280;41678;52.126;20.664;2023-10-13T15:11:09;100007.03;;;16.84;92.09
55759;BME280;41678;52.126;20.664;2023-10-13T15:16:37;99986.72;;;16.82;91.83
55759;BME280;41678;52.126;20.664;2023-10-13T15:21:56;99985.84;;;16.81;92.29
55759;BME280;41678;52.126;20.664;2023-10-13T15:27:16;99972.88;;;16.74;92.18
55759;BME280;41678;52.126;20.664;2023-10-13T15:32:40;99970.31;;;16.72;92.11
55759;BME280;41678;52.126;20.664;2023-10-13T15:38:03;99958.06;;;16.68;92.30
55759;BME280;41678;52.126;20.664;2023-10-13T15:43:23;99965.13;;;16.69;92.23
55759;BME280;41678;52.126;20.664;2023-10-13T15:48:42;99944.91;;;16.65;91.89
55759;BME280;41678;52.126;20.664;2023-10-13T15:54:05;99952.16;;;16.61;92.11
55759;BME280;41678;52.126;20.664;2023-10-13T15:59:34;99948.81;;;16.56;91.90
55759;BME280;41678;52.126;20.664;2023-10-13T16:04:56;99950.63;;;16.55;91.79
55759;BME280;41678;52.126;20.664;2023-10-13T16:10:22;99932.22;;;16.51;91.85
55759;BME280;41678;52.126;20.664;2023-10-13T16:15:41;99941.13;;;16.50;91.75
55759;BME280;41678;52.126;20.664;2023-10-13T16:21:06;99939.53;;;16.46;91.99
55759;BME280;41678;52.126;20.664;2023-10-13T16:26:27;99914.88;;;16.42;91.65
55759;BME280;41678;52.126;20.664;2023-10-13T16:31:49;99909.56;;;16.42;91.92
55759;BME280;41678;52.126;20.664;2023-10-13T16:37:09;99909.69;;;16.39;92.06
55759;BME280;41678;52.126;20.664;2023-10-13T16:42:31;99884.16;;;16.35;92.42
55759;BME280;41678;52.126;20.664;2023-10-13T16:47:54;99874.47;;;16.34;92.21
55759;BME280;41678;52.126;20.664;2023-10-13T16:53:13;99856.94;;;16.29;92.15
55759;BME280;41678;52.126;20.664;2023-10-13T16:58:33;99865.03;;;16.26;92.25
55759;BME280;41678;52.126;20.664;2023-10-13T17:03:53;99851.75;;;16.26;91.93
55759;BME280;41678;52.126;20.664;2023-10-13T17:09:12;99848.41;;;16.21;91.92
55759;BME280;41678;52.126;20.664;2023-10-13T17:14:32;99842.47;;;16.14;92.31
55759;BME280;41678;52.126;20.664;2023-10-13T17:19:51;99839.78;;;16.16;92.10
55759;BME280;41678;52.126;20.664;2023-10-13T17:25:11;99840.66;;;16.17;92.19
55759;BME280;41678;52.126;20.664;2023-10-13T17:30:32;99841.50;;;16.17;92.50
55759;BME280;41678;52.126;20.664;2023-10-13T17:35:52;99817.88;;;16.11;92.62
55759;BME280;41678;52.126;20.664;2023-10-13T17:41:12;99826.44;;;16.18;92.53
55759;BME280;41678;52.126;20.664;2023-10-13T17:46:33;99807.97;;;16.14;92.03
55759;BME280;41678;52.126;20.664;2023-10-13T17:51:52;99795.69;;;16.12;92.17
55759;BME280;41678;52.126;20.664;2023-10-13T17:57:11;99792.13;;;16.13;92.16
55759;BME280;41678;52.126;20.664;2023-10-13T18:02:31;99776.69;;;16.00;91.93
55759;BME280;41678;52.126;20.664;2023-10-13T18:07:50;99791.31;;;16.11;91.98
55759;BME280;41678;52.126;20.664;2023-10-13T18:13:11;99780.22;;;16.01;91.77
55759;BME280;41678;52.126;20.664;2023-10-13T18:18:31;99787.31;;;16.00;91.70
55759;BME280;41678;52.126;20.664;2023-10-13T18:23:52;99799.41;;;16.08;92.13
55759;BME280;41678;52.126;20.664;2023-10-13T18:29:12;99790.75;;;16.03;91.88
55759;BME280;41678;52.126;20.664;2023-10-13T18:34:31;99797.81;;;16.04;91.68
55759;BME280;41678;52.126;20.664;2023-10-13T18:39:51;99797.94;;;16.00;91.44
55759;BME280;41678;52.126;20.664;2023-10-13T18:45:11;99787.19;;;16.04;91.49
55759;BME280;41678;52.126;20.664;2023-10-13T18:50:32;99765.59;;;15.91;91.40
55759;BME280;41678;52.126;20.664;2023-10-13T18:55:52;99783.00;;;15.98;91.42
55759;BME280;41678;52.126;20.664;2023-10-13T19:01:14;99782.06;;;15.99;91.61
55759;BME280;41678;52.126;20.664;2023-10-13T19:06:36;99767.19;;;15.95;91.57
55759;BME280;41678;52.126;20.664;2023-10-13T19:11:56;99755.59;;;15.97;92.00
55759;BME280;41678;52.126;20.664;2023-10-13T19:17:16;99748.78;;;15.90;91.64
55759;BME280;41678;52.126;20.664;2023-10-13T19:22:37;99761.88;;;15.95;91.68
55759;BME280;41678;52.126;20.664;2023-10-13T19:28:16;99769.66;;;15.99;91.63
55759;BME280;41678;52.126;20.664;2023-10-13T19:33:36;99749.34;;;15.98;92.00
55759;BME280;41678;52.126;20.664;2023-10-13T19:38:55;99747.63;;;15.97;91.56
55759;BME280;41678;52.126;20.664;2023-10-13T19:44:15;99723.97;;;15.91;91.82
55759;BME280;41678;52.126;20.664;2023-10-13T19:49:35;99735.94;;;16.02;91.33
55759;BME280;41678;52.126;20.664;2023-10-13T19:54:57;99740.31;;;16.03;91.70
55759;BME280;41678;52.126;20.664;2023-10-13T20:00:18;99735.94;;;16.02;91.84
55759;BME280;41678;52.126;20.664;2023-10-13T20:05:41;99734.03;;;16.05;91.83
55759;BME280;41678;52.126;20.664;2023-10-13T20:11:03;99727.13;;;16.01;92.16
55759;BME280;41678;52.126;20.664;2023-10-13T20:16:23;99726.91;;;16.06;92.07
55759;BME280;41678;52.126;20.664;2023-10-13T20:21:43;99725.19;;;16.05;91.79
55759;BME280;41678;52.126;20.664;2023-10-13T20:27:06;99727.03;;;16.03;91.75
55759;BME280;41678;52.126;20.664;2023-10-13T20:32:26;99727.72;;;16.08;92.34
55759;BME280;41678;52.126;20.664;2023-10-13T20:37:45;99724.25;;;16.06;92.15
55759;BME280;41678;52.126;20.664;2023-10-13T20:43:04;99704.88;;;16.04;92.36
55759;BME280;41678;52.126;20.664;2023-10-13T20:48:25;99702.06;;;16.07;92.13
55759;BME280;41678;52.126;20.664;2023-10-13T20:53:50;99706.47;;;16.08;91.82
55759;BME280;41678;52.126;20.664;2023-10-13T20:59:21;99686.13;;;16.07;92.16
55759;BME280;41678;52.126;20.664;2023-10-13T21:04:40;99673.78;;;16.06;91.88
55759;BME280;41678;52.126;20.664;2023-10-13T21:10:01;99663.31;;;16.03;92.18
55759;BME280;41678;52.126;20.664;2023-10-13T21:15:21;99659.09;;;15.98;92.15
55759;BME280;41678;52.126;20.664;2023-10-13T21:20:43;99659.72;;;16.04;92.11
55759;BME280;41678;52.126;20.664;2023-10-13T21:26:03;99663.19;;;16.06;92.08
55759;BME280;41678;52.126;20.664;2023-10-13T21:31:23;99656.28;;;16.02;92.07
55759;BME280;41678;52.126;20.664;2023-10-13T21:36:42;99649.06;;;16.05;91.97
55759;BME280;41678;52.126;20.664;2023-10-13T21:42:02;99633.97;;;16.06;91.83
55759;BME280;41678;52.126;20.664;2023-10-13T21:47:22;99645.25;;;16.11;92.21
55759;BME280;41678;52.126;20.664;2023-10-13T21:52:44;99638.94;;;16.13;92.15
55759;BME280;41678;52.126;20.664;2023-10-13T21:58:07;99649.28;;;16.20;92.08
55759;BME280;41678;52.126;20.664;2023-10-13T22:03:26;99623.59;;;16.20;92.02
55759;BME280;41678;52.126;20.664;2023-10-13T22:08:49;99631.50;;;16.22;92.31
55759;BME280;41678;52.126;20.664;2023-10-13T22:14:11;99613.69;;;16.24;92.21
55759;BME280;41678;52.126;20.664;2023-10-13T22:19:35;99605.66;;;16.25;92.12
55759;BME280;41678;52.126;20.664;2023-10-13T22:24:57;99606.50;;;16.26;91.73
55759;BME280;41678;52.126;20.664;2023-10-13T22:30:17;99595.97;;;16.24;92.12
55759;BME280;41678;52.126;20.664;2023-10-13T22:35:37;99586.00;;;16.29;91.93
55759;BME280;41678;52.126;20.664;2023-10-13T22:40:57;99579.09;;;16.25;91.80
55759;BME280;41678;52.126;20.664;2023-10-13T22:46:16;99578.81;;;16.32;92.11
55759;BME280;41678;52.126;20.664;2023-10-13T22:51:37;99550.72;;;16.26;91.81
55759;BME280;41678;52.126;20.664;2023-10-13T22:56:57;99555.09;;;16.27;92.03
55759;BME280;41678;52.126;20.664;2023-10-13T23:02:16;99548.38;;;16.39;91.61
55759;BME280;41678;52.126;20.664;2023-10-13T23:07:36;99552.81;;;16.38;92.00
55759;BME280;41678;52.126;20.664;2023-10-13T23:12:58;99536.88;;;16.38;91.67
55759;BME280;41678;52.126;20.664;2023-10-13T23:18:19;99537.75;;;16.39;91.75
55759;BME280;41678;52.126;20.664;2023-10-13T23:23:38;99527.34;;;16.34;91.72
55759;BME280;41678;52.126;20.664;2023-10-13T23:28:58;99526.25;;;16.38;91.59
55759;BME280;41678;52.126;20.664;2023-10-13T23:34:17;99519.16;;;16.39;91.61
55759;BME280;41678;52.126;20.664;2023-10-13T23:39:37;99522.75;;;16.38;91.45
55759;BME280;41678;52.126;20.664;2023-10-13T23:44:56;99504.16;;;16.38;91.76
55759;BME280;41678;52.126;20.664;2023-10-13T23:50:27;99503.34;;;16.36;91.67
55759;BME280;41678;52.126;20.664;2023-10-13T23:55:47;99495.53;;;16.33;91.47
